sensor_id;sensor_type;location;lat;lon;timestamp;temperature;humidity
8402;DHT22;4238;48.404;9.498;2022-07-17T00:00:44;12.50;1.00
8402;DHT22;4238;48.404;9.498;2022-07-17T00:03:12;12.50;1.00
8402;DHT22;4238;48.404;9.498;2022-07-17T00:05:40;12.50;1.00
8402;DHT22;4238;48.404;9.498;2022-07-17T00:08:08;12.50;1.00
8402;DHT22;4238;48.404;9.498;2022-07-17T00:10:37;12.50;1.00
8402;DHT22;4238;48.404;9.498;2022-07-17T00:13:05;12.40;1.00
8402;DHT22;4238;48.404;9.498;2022-07-17T00:15:32;12.40;1.00
8402;DHT22;4238;48.404;9.498;2022-07-17T00:17:59;12.40;1.00
8402;DHT22;4238;48.404;9.498;2022-07-17T00:20:27;12.40;1.00
8402;DHT22;4238;48.404;9.498;2022-07-17T00:22:55;12.30;1.00
8402;DHT22;4238;48.404;9.498;2022-07-17T00:25:24;12.30;1.00
8402;DHT22;4238;48.404;9.498;2022-07-17T00:27:51;12.20;1.00
8402;DHT22;4238;48.404;9.498;2022-07-17T00:30:19;12.30;1.00
8402;DHT22;4238;48.404;9.498;2022-07-17T00:32:46;12.20;1.00
8402;DHT22;4238;48.404;9.498;2022-07-17T00:35:13;12.20;1.00
8402;DHT22;4238;48.404;9.498;2022-07-17T00:37:41;12.20;1.00
8402;DHT22;4238;48.404;9.498;2022-07-17T00:40:11;12.20;1.00
8402;DHT22;4238;48.404;9.498;2022-07-17T00:42:39;12.20;1.00
8402;DHT22;4238;48.404;9.498;2022-07-17T00:45:07;12.20;1.00
8402;DHT22;4238;48.404;9.498;2022-07-17T00:47:48;12.30;1.00
8402;DHT22;4238;48.404;9.498;2022-07-17T00:50:16;12.30;1.00
8402;DHT22;4238;48.404;9.498;2022-07-17T00:52:43;12.30;1.00
8402;DHT22;4238;48.404;9.498;2022-07-17T00:55:12;12.10;1.00
8402;DHT22;4238;48.404;9.498;2022-07-17T00:57:40;12.20;1.00
8402;DHT22;4238;48.404;9.498;2022-07-17T01:00:08;12.20;1.00
8402;DHT22;4238;48.404;9.498;2022-07-17T01:02:36;12.20;1.00
8402;DHT22;4238;48.404;9.498;2022-07-17T01:05:04;12.20;1.00
8402;DHT22;4238;48.404;9.498;2022-07-17T01:07:32;12.10;1.00
8402;DHT22;4238;48.404;9.498;2022-07-17T01:09:59;12.00;1.00
8402;DHT22;4238;48.404;9.498;2022-07-17T01:12:28;12.00;1.00
8402;DHT22;4238;48.404;9.498;2022-07-17T01:14:56;11.90;1.00
8402;DHT22;4238;48.404;9.498;2022-07-17T01:17:24;11.90;1.00
8402;DHT22;4238;48.404;9.498;2022-07-17T01:19:51;12.00;1.00
8402;DHT22;4238;48.404;9.498;2022-07-17T01:22:19;11.90;1.00
8402;DHT22;4238;48.404;9.498;2022-07-17T01:24:46;12.00;1.00
8402;DHT22;4238;48.404;9.498;2022-07-17T01:27:14;12.00;1.00
8402;DHT22;4238;48.404;9.498;2022-07-17T01:29:41;12.00;1.00
8402;DHT22;4238;48.404;9.498;2022-07-17T01:32:08;11.80;1.00
8402;DHT22;4238;48.404;9.498;2022-07-17T01:34:35;11.70;1.00
8402;DHT22;4238;48.404;9.498;2022-07-17T01:37:02;11.60;1.00
8402;DHT22;4238;48.404;9.498;2022-07-17T01:39:31;11.40;1.00
8402;DHT22;4238;48.404;9.498;2022-07-17T01:42:15;11.40;1.00
8402;DHT22;4238;48.404;9.498;2022-07-17T01:44:42;11.50;1.00
8402;DHT22;4238;48.404;9.498;2022-07-17T01:47:09;11.50;1.00
8402;DHT22;4238;48.404;9.498;2022-07-17T01:49:36;11.50;1.00
8402;DHT22;4238;48.404;9.498;2022-07-17T01:52:03;11.70;1.00
8402;DHT22;4238;48.404;9.498;2022-07-17T01:54:33;11.70;1.00
8402;DHT22;4238;48.404;9.498;2022-07-17T01:57:00;11.70;1.00
8402;DHT22;4238;48.404;9.498;2022-07-17T01:59:27;11.60;1.00
8402;DHT22;4238;48.404;9.498;2022-07-17T02:01:54;11.50;1.00
8402;DHT22;4238;48.404;9.498;2022-07-17T02:04:21;11.40;1.00
8402;DHT22;4238;48.404;9.498;2022-07-17T02:06:48;11.40;1.00
8402;DHT22;4238;48.404;9.498;2022-07-17T02:09:14;11.30;1.00
8402;DHT22;4238;48.404;9.498;2022-07-17T02:11:43;11.20;1.00
8402;DHT22;4238;48.404;9.498;2022-07-17T02:14:10;11.30;1.00
8402;DHT22;4238;48.404;9.498;2022-07-17T02:16:37;11.20;1.00
8402;DHT22;4238;48.404;9.498;2022-07-17T02:19:04;11.20;1.00
8402;DHT22;4238;48.404;9.498;2022-07-17T02:21:31;11.20;1.00
8402;DHT22;4238;48.404;9.498;2022-07-17T02:23:58;11.20;1.00
8402;DHT22;4238;48.404;9.498;2022-07-17T02:26:25;11.20;1.00
8402;DHT22;4238;48.404;9.498;2022-07-17T02:28:53;11.20;1.00
8402;DHT22;4238;48.404;9.498;2022-07-17T02:31:20;11.20;1.00
8402;DHT22;4238;48.404;9.498;2022-07-17T02:33:47;11.10;1.00
8402;DHT22;4238;48.404;9.498;2022-07-17T02:36:14;11.10;1.00
8402;DHT22;4238;48.404;9.498;2022-07-17T02:38:41;11.20;1.00
8402;DHT22;4238;48.404;9.498;2022-07-17T02:41:08;11.10;1.00
8402;DHT22;4238;48.404;9.498;2022-07-17T02:43:35;11.20;1.00
8402;DHT22;4238;48.404;9.498;2022-07-17T02:46:03;11.30;1.00
8402;DHT22;4238;48.404;9.498;2022-07-17T02:48:30;11.30;1.00
8402;DHT22;4238;48.404;9.498;2022-07-17T02:50:58;11.30;1.00
8402;DHT22;4238;48.404;9.498;2022-07-17T02:53:24;11.30;1.00
8402;DHT22;4238;48.404;9.498;2022-07-17T02:55:52;11.40;1.00
8402;DHT22;4238;48.404;9.498;2022-07-17T02:58:19;11.40;1.00
8402;DHT22;4238;48.404;9.498;2022-07-17T03:00:46;11.40;1.00
8402;DHT22;4238;48.404;9.498;2022-07-17T03:03:14;11.30;1.00
8402;DHT22;4238;48.404;9.498;2022-07-17T03:05:41;11.30;1.00
8402;DHT22;4238;48.404;9.498;2022-07-17T03:08:08;11.40;1.00
8402;DHT22;4238;48.404;9.498;2022-07-17T03:10:35;11.30;1.00
8402;DHT22;4238;48.404;9.498;2022-07-17T03:13:02;11.20;1.00
8402;DHT22;4238;48.404;9.498;2022-07-17T03:15:29;11.20;1.00
8402;DHT22;4238;48.404;9.498;2022-07-17T03:17:56;11.00;1.00
8402;DHT22;4238;48.404;9.498;2022-07-17T03:20:24;11.10;1.00
8402;DHT22;4238;48.404;9.498;2022-07-17T03:22:51;11.00;1.00
8402;DHT22;4238;48.404;9.498;2022-07-17T03:25:18;11.00;1.00
8402;DHT22;4238;48.404;9.498;2022-07-17T03:27:45;10.90;1.00
8402;DHT22;4238;48.404;9.498;2022-07-17T03:30:12;10.90;1.00
8402;DHT22;4238;48.404;9.498;2022-07-17T03:32:39;10.90;1.00
8402;DHT22;4238;48.404;9.498;2022-07-17T03:35:07;10.90;1.00
8402;DHT22;4238;48.404;9.498;2022-07-17T03:37:35;10.90;1.00
8402;DHT22;4238;48.404;9.498;2022-07-17T03:40:05;10.90;1.00
8402;DHT22;4238;48.404;9.498;2022-07-17T03:42:32;11.00;1.00
8402;DHT22;4238;48.404;9.498;2022-07-17T03:44:59;11.00;1.00
8402;DHT22;4238;48.404;9.498;2022-07-17T03:47:26;11.00;1.00
8402;DHT22;4238;48.404;9.498;2022-07-17T03:49:53;11.00;1.00
8402;DHT22;4238;48.404;9.498;2022-07-17T03:52:20;10.90;1.00
8402;DHT22;4238;48.404;9.498;2022-07-17T03:54:48;10.90;1.00
8402;DHT22;4238;48.404;9.498;2022-07-17T03:57:15;11.00;1.00
8402;DHT22;4238;48.404;9.498;2022-07-17T03:59:42;11.00;1.00
8402;DHT22;4238;48.404;9.498;2022-07-17T04:02:09;11.00;1.00
8402;DHT22;4238;48.404;9.498;2022-07-17T04:04:36;10.90;1.00
8402;DHT22;4238;48.404;9.498;2022-07-17T04:07:03;11.00;1.00
8402;DHT22;4238;48.404;9.498;2022-07-17T04:09:31;11.10;1.00
8402;DHT22;4238;48.404;9.498;2022-07-17T04:11:59;11.20;1.00
8402;DHT22;4238;48.404;9.498;2022-07-17T04:14:26;11.10;1.00
8402;DHT22;4238;48.404;9.498;2022-07-17T04:16:53;11.00;1.00
8402;DHT22;4238;48.404;9.498;2022-07-17T04:19:20;11.00;1.00
8402;DHT22;4238;48.404;9.498;2022-07-17T04:21:47;11.10;1.00
8402;DHT22;4238;48.404;9.498;2022-07-17T04:24:14;11.20;1.00
8402;DHT22;4238;48.404;9.498;2022-07-17T04:26:41;11.20;1.00
8402;DHT22;4238;48.404;9.498;2022-07-17T04:29:09;11.20;1.00
8402;DHT22;4238;48.404;9.498;2022-07-17T04:31:36;11.30;1.00
8402;DHT22;4238;48.404;9.498;2022-07-17T04:34:03;11.30;1.00
8402;DHT22;4238;48.404;9.498;2022-07-17T04:36:30;11.50;1.00
8402;DHT22;4238;48.404;9.498;2022-07-17T04:38:56;11.70;1.00
8402;DHT22;4238;48.404;9.498;2022-07-17T04:41:23;11.80;1.00
8402;DHT22;4238;48.404;9.498;2022-07-17T04:43:50;11.90;1.00
8402;DHT22;4238;48.404;9.498;2022-07-17T04:46:19;12.00;1.00
8402;DHT22;4238;48.404;9.498;2022-07-17T04:48:46;12.20;1.00
8402;DHT22;4238;48.404;9.498;2022-07-17T04:51:12;12.30;1.00
8402;DHT22;4238;48.404;9.498;2022-07-17T04:53:39;12.40;1.00
8402;DHT22;4238;48.404;9.498;2022-07-17T04:56:06;12.60;1.00
8402;DHT22;4238;48.404;9.498;2022-07-17T04:58:33;12.80;1.00
8402;DHT22;4238;48.404;9.498;2022-07-17T05:01:00;13.10;1.00
8402;DHT22;4238;48.404;9.498;2022-07-17T05:03:28;13.30;1.00
8402;DHT22;4238;48.404;9.498;2022-07-17T05:05:55;13.50;1.00
8402;DHT22;4238;48.404;9.498;2022-07-17T05:08:22;13.80;1.00
8402;DHT22;4238;48.404;9.498;2022-07-17T05:10:49;14.00;1.00
8402;DHT22;4238;48.404;9.498;2022-07-17T05:13:16;14.10;1.00
8402;DHT22;4238;48.404;9.498;2022-07-17T05:15:43;14.40;1.00
8402;DHT22;4238;48.404;9.498;2022-07-17T05:18:10;14.70;1.00
8402;DHT22;4238;48.404;9.498;2022-07-17T05:20:39;15.00;64.30
8402;DHT22;4238;48.404;9.498;2022-07-17T05:23:06;15.30;48.80
8402;DHT22;4238;48.404;9.498;2022-07-17T05:25:33;15.60;99.90
8402;DHT22;4238;48.404;9.498;2022-07-17T05:28:00;15.80;99.90
8402;DHT22;4238;48.404;9.498;2022-07-17T05:30:28;16.10;99.90
8402;DHT22;4238;48.404;9.498;2022-07-17T05:32:55;16.40;1.00
8402;DHT22;4238;48.404;9.498;2022-07-17T05:35:22;16.60;99.90
8402;DHT22;4238;48.404;9.498;2022-07-17T05:37:51;16.80;1.00
8402;DHT22;4238;48.404;9.498;2022-07-17T05:40:18;16.90;1.00
8402;DHT22;4238;48.404;9.498;2022-07-17T05:42:44;17.10;1.00
8402;DHT22;4238;48.404;9.498;2022-07-17T05:45:11;17.30;1.00
8402;DHT22;4238;48.404;9.498;2022-07-17T05:47:38;17.50;99.90
8402;DHT22;4238;48.404;9.498;2022-07-17T05:50:06;17.60;99.90
8402;DHT22;4238;48.404;9.498;2022-07-17T05:52:33;17.80;1.00
8402;DHT22;4238;48.404;9.498;2022-07-17T05:55:01;18.00;1.00
8402;DHT22;4238;48.404;9.498;2022-07-17T05:57:28;18.20;37.90
8402;DHT22;4238;48.404;9.498;2022-07-17T05:59:55;18.40;1.00
8402;DHT22;4238;48.404;9.498;2022-07-17T06:02:22;18.50;1.00
8402;DHT22;4238;48.404;9.498;2022-07-17T06:04:49;18.90;1.00
8402;DHT22;4238;48.404;9.498;2022-07-17T06:07:16;19.00;1.00
8402;DHT22;4238;48.404;9.498;2022-07-17T06:09:43;19.20;1.00
8402;DHT22;4238;48.404;9.498;2022-07-17T06:12:11;19.30;99.90
8402;DHT22;4238;48.404;9.498;2022-07-17T06:14:38;19.60;99.90
8402;DHT22;4238;48.404;9.498;2022-07-17T06:17:05;19.50;99.90
8402;DHT22;4238;48.404;9.498;2022-07-17T06:19:32;19.80;99.90
8402;DHT22;4238;48.404;9.498;2022-07-17T06:21:59;19.90;99.90
8402;DHT22;4238;48.404;9.498;2022-07-17T06:24:26;20.10;99.90
8402;DHT22;4238;48.404;9.498;2022-07-17T06:26:53;20.10;89.20
8402;DHT22;4238;48.404;9.498;2022-07-17T06:29:21;20.40;64.60
8402;DHT22;4238;48.404;9.498;2022-07-17T06:31:48;20.60;67.80
8402;DHT22;4238;48.404;9.498;2022-07-17T06:34:15;20.60;9.50
8402;DHT22;4238;48.404;9.498;2022-07-17T06:36:42;20.90;1.00
8402;DHT22;4238;48.404;9.498;2022-07-17T06:39:08;21.10;1.00
8402;DHT22;4238;48.404;9.498;2022-07-17T06:41:35;20.90;1.00
8402;DHT22;4238;48.404;9.498;2022-07-17T06:44:03;21.10;1.00
8402;DHT22;4238;48.404;9.498;2022-07-17T06:46:31;21.30;1.00
8402;DHT22;4238;48.404;9.498;2022-07-17T06:48:58;21.50;1.00
8402;DHT22;4238;48.404;9.498;2022-07-17T06:51:25;21.40;1.00
8402;DHT22;4238;48.404;9.498;2022-07-17T06:53:52;21.60;1.00
8402;DHT22;4238;48.404;9.498;2022-07-17T06:56:19;21.80;1.00
8402;DHT22;4238;48.404;9.498;2022-07-17T06:58:45;21.70;1.00
8402;DHT22;4238;48.404;9.498;2022-07-17T07:01:12;22.00;1.00
8402;DHT22;4238;48.404;9.498;2022-07-17T07:03:41;21.90;1.00
8402;DHT22;4238;48.404;9.498;2022-07-17T07:06:08;21.90;1.00
8402;DHT22;4238;48.404;9.498;2022-07-17T07:08:35;22.10;1.00
8402;DHT22;4238;48.404;9.498;2022-07-17T07:11:02;22.50;1.00
8402;DHT22;4238;48.404;9.498;2022-07-17T07:13:29;22.60;1.00
8402;DHT22;4238;48.404;9.498;2022-07-17T07:15:58;22.60;1.00
8402;DHT22;4238;48.404;9.498;2022-07-17T07:18:26;22.40;1.00
8402;DHT22;4238;48.404;9.498;2022-07-17T07:20:54;22.80;99.90
8402;DHT22;4238;48.404;9.498;2022-07-17T07:23:21;22.70;99.90
8402;DHT22;4238;48.404;9.498;2022-07-17T07:25:48;22.70;99.90
8402;DHT22;4238;48.404;9.498;2022-07-17T07:28:15;22.80;99.90
8402;DHT22;4238;48.404;9.498;2022-07-17T07:30:42;22.90;99.90
8402;DHT22;4238;48.404;9.498;2022-07-17T07:33:09;22.90;99.90
8402;DHT22;4238;48.404;9.498;2022-07-17T07:35:36;23.20;99.90
8402;DHT22;4238;48.404;9.498;2022-07-17T07:38:04;23.50;99.90
8402;DHT22;4238;48.404;9.498;2022-07-17T07:40:31;23.70;99.90
8402;DHT22;4238;48.404;9.498;2022-07-17T07:42:58;23.90;99.90
8402;DHT22;4238;48.404;9.498;2022-07-17T07:45:26;23.70;99.90
8402;DHT22;4238;48.404;9.498;2022-07-17T07:47:52;23.90;99.90
8402;DHT22;4238;48.404;9.498;2022-07-17T07:50:23;24.10;99.90
8402;DHT22;4238;48.404;9.498;2022-07-17T07:52:50;24.20;99.90
8402;DHT22;4238;48.404;9.498;2022-07-17T07:55:19;24.10;99.90
8402;DHT22;4238;48.404;9.498;2022-07-17T07:57:46;23.70;99.90
8402;DHT22;4238;48.404;9.498;2022-07-17T08:00:14;23.70;99.90
8402;DHT22;4238;48.404;9.498;2022-07-17T08:02:41;24.10;99.90
8402;DHT22;4238;48.404;9.498;2022-07-17T08:05:08;24.20;99.90
8402;DHT22;4238;48.404;9.498;2022-07-17T08:07:36;24.30;99.90
8402;DHT22;4238;48.404;9.498;2022-07-17T08:10:04;24.30;99.90
8402;DHT22;4238;48.404;9.498;2022-07-17T08:12:32;24.40;99.90
8402;DHT22;4238;48.404;9.498;2022-07-17T08:14:59;24.70;99.90
8402;DHT22;4238;48.404;9.498;2022-07-17T08:17:26;25.00;99.90
8402;DHT22;4238;48.404;9.498;2022-07-17T08:19:53;25.00;99.90
8402;DHT22;4238;48.404;9.498;2022-07-17T08:22:20;25.10;99.90
8402;DHT22;4238;48.404;9.498;2022-07-17T08:24:47;24.40;99.90
8402;DHT22;4238;48.404;9.498;2022-07-17T08:27:14;24.70;99.90
8402;DHT22;4238;48.404;9.498;2022-07-17T08:29:42;25.00;99.90
8402;DHT22;4238;48.404;9.498;2022-07-17T08:32:09;25.10;99.90
8402;DHT22;4238;48.404;9.498;2022-07-17T08:34:36;25.40;99.90
8402;DHT22;4238;48.404;9.498;2022-07-17T08:37:03;25.20;99.90
8402;DHT22;4238;48.404;9.498;2022-07-17T08:39:30;25.50;99.90
8402;DHT22;4238;48.404;9.498;2022-07-17T08:41:57;25.80;99.90
8402;DHT22;4238;48.404;9.498;2022-07-17T08:44:24;25.30;99.90
8402;DHT22;4238;48.404;9.498;2022-07-17T08:46:53;25.80;99.90
8402;DHT22;4238;48.404;9.498;2022-07-17T08:49:21;25.70;99.90
8402;DHT22;4238;48.404;9.498;2022-07-17T08:51:48;25.80;99.90
8402;DHT22;4238;48.404;9.498;2022-07-17T08:54:15;25.60;99.90
8402;DHT22;4238;48.404;9.498;2022-07-17T08:56:43;25.40;99.90
8402;DHT22;4238;48.404;9.498;2022-07-17T08:59:10;25.30;99.90
8402;DHT22;4238;48.404;9.498;2022-07-17T09:01:37;25.70;99.90
8402;DHT22;4238;48.404;9.498;2022-07-17T09:04:05;25.80;99.90
8402;DHT22;4238;48.404;9.498;2022-07-17T09:06:33;25.60;99.90
8402;DHT22;4238;48.404;9.498;2022-07-17T09:09:05;25.80;99.90
8402;DHT22;4238;48.404;9.498;2022-07-17T09:11:43;26.10;99.90
8402;DHT22;4238;48.404;9.498;2022-07-17T09:14:10;26.00;99.90
8402;DHT22;4238;48.404;9.498;2022-07-17T09:16:50;26.30;99.90
8402;DHT22;4238;48.404;9.498;2022-07-17T09:19:29;26.10;99.90
8402;DHT22;4238;48.404;9.498;2022-07-17T09:22:07;26.20;99.90
8402;DHT22;4238;48.404;9.498;2022-07-17T09:24:44;26.10;99.90
8402;DHT22;4238;48.404;9.498;2022-07-17T09:27:27;26.40;99.90
8402;DHT22;4238;48.404;9.498;2022-07-17T09:29:56;26.30;99.90
8402;DHT22;4238;48.404;9.498;2022-07-17T09:32:24;26.10;99.90
8402;DHT22;4238;48.404;9.498;2022-07-17T09:34:55;26.30;99.90
8402;DHT22;4238;48.404;9.498;2022-07-17T09:37:22;26.50;99.90
8402;DHT22;4238;48.404;9.498;2022-07-17T09:39:50;26.40;99.90
8402;DHT22;4238;48.404;9.498;2022-07-17T09:42:27;26.70;99.90
8402;DHT22;4238;48.404;9.498;2022-07-17T09:44:56;26.80;99.90
8402;DHT22;4238;48.404;9.498;2022-07-17T09:47:23;27.00;99.90
8402;DHT22;4238;48.404;9.498;2022-07-17T09:49:54;26.50;99.90
8402;DHT22;4238;48.404;9.498;2022-07-17T09:52:23;26.50;99.90
8402;DHT22;4238;48.404;9.498;2022-07-17T09:54:52;26.90;99.90
8402;DHT22;4238;48.404;9.498;2022-07-17T09:57:19;26.90;99.90
8402;DHT22;4238;48.404;9.498;2022-07-17T09:59:47;26.80;99.90
8402;DHT22;4238;48.404;9.498;2022-07-17T10:02:16;27.20;99.90
8402;DHT22;4238;48.404;9.498;2022-07-17T10:04:43;27.20;99.90
8402;DHT22;4238;48.404;9.498;2022-07-17T10:07:13;27.30;99.90
8402;DHT22;4238;48.404;9.498;2022-07-17T10:09:40;27.20;99.90
8402;DHT22;4238;48.404;9.498;2022-07-17T10:12:07;27.70;99.90
8402;DHT22;4238;48.404;9.498;2022-07-17T10:14:35;27.50;99.90
8402;DHT22;4238;48.404;9.498;2022-07-17T10:17:08;27.40;99.90
8402;DHT22;4238;48.404;9.498;2022-07-17T10:19:46;27.90;99.90
8402;DHT22;4238;48.404;9.498;2022-07-17T10:22:15;27.80;99.90
8402;DHT22;4238;48.404;9.498;2022-07-17T10:24:46;27.70;99.90
8402;DHT22;4238;48.404;9.498;2022-07-17T10:27:21;27.70;99.90
8402;DHT22;4238;48.404;9.498;2022-07-17T10:29:59;27.60;99.90
8402;DHT22;4238;48.404;9.498;2022-07-17T10:32:26;27.50;99.90
8402;DHT22;4238;48.404;9.498;2022-07-17T10:34:57;27.70;99.90
8402;DHT22;4238;48.404;9.498;2022-07-17T10:37:28;28.10;99.90
8402;DHT22;4238;48.404;9.498;2022-07-17T10:40:04;28.20;90.90
8402;DHT22;4238;48.404;9.498;2022-07-17T10:42:41;28.10;96.30
8402;DHT22;4238;48.404;9.498;2022-07-17T10:45:10;28.20;90.90
8402;DHT22;4238;48.404;9.498;2022-07-17T10:47:49;28.30;90.00
8402;DHT22;4238;48.404;9.498;2022-07-17T10:50:18;28.10;76.80
8402;DHT22;4238;48.404;9.498;2022-07-17T10:52:59;28.00;81.30
8402;DHT22;4238;48.404;9.498;2022-07-17T10:55:27;27.70;83.00
8402;DHT22;4238;48.404;9.498;2022-07-17T10:57:54;28.00;91.30
8402;DHT22;4238;48.404;9.498;2022-07-17T11:00:22;27.90;87.10
8402;DHT22;4238;48.404;9.498;2022-07-17T11:02:49;28.00;85.00
8402;DHT22;4238;48.404;9.498;2022-07-17T11:05:16;27.90;79.50
8402;DHT22;4238;48.404;9.498;2022-07-17T11:07:57;28.30;83.10
8402;DHT22;4238;48.404;9.498;2022-07-17T11:10:27;28.40;79.50
8402;DHT22;4238;48.404;9.498;2022-07-17T11:13:06;27.90;74.10
8402;DHT22;4238;48.404;9.498;2022-07-17T11:15:38;28.20;85.50
8402;DHT22;4238;48.404;9.498;2022-07-17T11:18:10;28.30;76.80
8402;DHT22;4238;48.404;9.498;2022-07-17T11:20:50;28.30;85.80
8402;DHT22;4238;48.404;9.498;2022-07-17T11:23:19;28.50;76.50
8402;DHT22;4238;48.404;9.498;2022-07-17T11:26:00;28.60;78.10
8402;DHT22;4238;48.404;9.498;2022-07-17T11:28:32;29.00;65.50
8402;DHT22;4238;48.404;9.498;2022-07-17T11:31:01;29.20;57.40
8402;DHT22;4238;48.404;9.498;2022-07-17T11:33:28;29.00;50.60
8402;DHT22;4238;48.404;9.498;2022-07-17T11:35:55;28.50;48.30
8402;DHT22;4238;48.404;9.498;2022-07-17T11:38:28;28.10;54.10
8402;DHT22;4238;48.404;9.498;2022-07-17T11:40:56;28.40;53.80
8402;DHT22;4238;48.404;9.498;2022-07-17T11:43:23;28.60;59.30
8402;DHT22;4238;48.404;9.498;2022-07-17T11:45:50;28.90;53.30
8402;DHT22;4238;48.404;9.498;2022-07-17T11:48:17;28.90;60.40
8402;DHT22;4238;48.404;9.498;2022-07-17T11:50:54;29.20;64.70
8402;DHT22;4238;48.404;9.498;2022-07-17T11:53:32;29.10;52.40
8402;DHT22;4238;48.404;9.498;2022-07-17T11:56:00;29.30;54.50
8402;DHT22;4238;48.404;9.498;2022-07-17T11:58:28;29.20;45.90
8402;DHT22;4238;48.404;9.498;2022-07-17T12:01:02;29.30;40.60
8402;DHT22;4238;48.404;9.498;2022-07-17T12:03:30;29.40;47.00
8402;DHT22;4238;48.404;9.498;2022-07-17T12:05:57;29.10;48.90
8402;DHT22;4238;48.404;9.498;2022-07-17T12:08:24;29.40;44.10
8402;DHT22;4238;48.404;9.498;2022-07-17T12:11:02;29.30;40.60
8402;DHT22;4238;48.404;9.498;2022-07-17T12:13:41;29.40;54.30
8402;DHT22;4238;48.404;9.498;2022-07-17T12:16:23;29.30;52.80
8402;DHT22;4238;48.404;9.498;2022-07-17T12:19:03;29.80;37.90
8402;DHT22;4238;48.404;9.498;2022-07-17T12:21:31;29.40;31.60
8402;DHT22;4238;48.404;9.498;2022-07-17T12:24:02;28.90;31.70
8402;DHT22;4238;48.404;9.498;2022-07-17T12:26:32;28.80;37.10
8402;DHT22;4238;48.404;9.498;2022-07-17T12:28:59;28.80;41.90
8402;DHT22;4238;48.404;9.498;2022-07-17T12:31:25;28.70;38.90
8402;DHT22;4238;48.404;9.498;2022-07-17T12:33:53;28.90;39.80
8402;DHT22;4238;48.404;9.498;2022-07-17T12:36:21;29.50;43.80
8402;DHT22;4238;48.404;9.498;2022-07-17T12:38:48;29.10;38.00
8402;DHT22;4238;48.404;9.498;2022-07-17T12:41:15;29.40;39.60
8402;DHT22;4238;48.404;9.498;2022-07-17T12:43:44;29.60;31.90
8402;DHT22;4238;48.404;9.498;2022-07-17T12:46:11;29.60;35.60
8402;DHT22;4238;48.404;9.498;2022-07-17T12:48:39;29.20;44.70
8402;DHT22;4238;48.404;9.498;2022-07-17T12:51:07;29.30;26.00
8402;DHT22;4238;48.404;9.498;2022-07-17T12:53:34;29.10;24.00
8402;DHT22;4238;48.404;9.498;2022-07-17T12:56:02;29.40;25.60
8402;DHT22;4238;48.404;9.498;2022-07-17T12:58:29;29.70;26.50
8402;DHT22;4238;48.404;9.498;2022-07-17T13:00:58;29.50;29.90
8402;DHT22;4238;48.404;9.498;2022-07-17T13:03:25;29.50;27.30
8402;DHT22;4238;48.404;9.498;2022-07-17T13:05:52;29.50;24.80
8402;DHT22;4238;48.404;9.498;2022-07-17T13:08:19;29.20;23.30
8402;DHT22;4238;48.404;9.498;2022-07-17T13:10:46;29.50;27.40
8402;DHT22;4238;48.404;9.498;2022-07-17T13:13:13;30.00;35.20
8402;DHT22;4238;48.404;9.498;2022-07-17T13:15:40;29.90;28.00
8402;DHT22;4238;48.404;9.498;2022-07-17T13:18:08;29.70;23.00
8402;DHT22;4238;48.404;9.498;2022-07-17T13:20:36;29.50;22.60
8402;DHT22;4238;48.404;9.498;2022-07-17T13:23:02;29.20;23.60
8402;DHT22;4238;48.404;9.498;2022-07-17T13:25:29;29.40;22.70
8402;DHT22;4238;48.404;9.498;2022-07-17T13:27:56;28.20;19.40
8402;DHT22;4238;48.404;9.498;2022-07-17T13:30:23;28.00;22.40
8402;DHT22;4238;48.404;9.498;2022-07-17T13:32:50;28.50;23.30
8402;DHT22;4238;48.404;9.498;2022-07-17T13:35:20;28.50;21.90
8402;DHT22;4238;48.404;9.498;2022-07-17T13:37:48;28.20;22.60
8402;DHT22;4238;48.404;9.498;2022-07-17T13:40:15;28.70;26.70
8402;DHT22;4238;48.404;9.498;2022-07-17T13:42:44;29.10;31.20
8402;DHT22;4238;48.404;9.498;2022-07-17T13:45:11;29.10;30.30
8402;DHT22;4238;48.404;9.498;2022-07-17T13:47:39;29.10;26.10
8402;DHT22;4238;48.404;9.498;2022-07-17T13:50:06;29.10;25.80
8402;DHT22;4238;48.404;9.498;2022-07-17T13:52:35;29.20;26.10
8402;DHT22;4238;48.404;9.498;2022-07-17T13:55:03;29.10;26.60
8402;DHT22;4238;48.404;9.498;2022-07-17T13:57:30;29.40;34.20
8402;DHT22;4238;48.404;9.498;2022-07-17T13:59:57;29.60;29.80
8402;DHT22;4238;48.404;9.498;2022-07-17T14:02:24;29.30;24.80
8402;DHT22;4238;48.404;9.498;2022-07-17T14:04:51;29.30;27.00
8402;DHT22;4238;48.404;9.498;2022-07-17T14:07:18;29.60;32.30
8402;DHT22;4238;48.404;9.498;2022-07-17T14:09:46;29.60;30.30
8402;DHT22;4238;48.404;9.498;2022-07-17T14:12:13;29.90;31.50
8402;DHT22;4238;48.404;9.498;2022-07-17T14:14:40;30.10;31.80
8402;DHT22;4238;48.404;9.498;2022-07-17T14:17:07;30.20;30.50
8402;DHT22;4238;48.404;9.498;2022-07-17T14:19:34;30.10;26.80
8402;DHT22;4238;48.404;9.498;2022-07-17T14:22:02;30.00;25.90
8402;DHT22;4238;48.404;9.498;2022-07-17T14:24:29;30.00;20.90
8402;DHT22;4238;48.404;9.498;2022-07-17T14:26:58;29.90;20.80
8402;DHT22;4238;48.404;9.498;2022-07-17T14:29:25;29.80;19.60
8402;DHT22;4238;48.404;9.498;2022-07-17T14:31:52;29.50;20.30
8402;DHT22;4238;48.404;9.498;2022-07-17T14:34:18;29.20;22.90
8402;DHT22;4238;48.404;9.498;2022-07-17T14:36:46;29.00;26.30
8402;DHT22;4238;48.404;9.498;2022-07-17T14:39:15;29.10;29.00
8402;DHT22;4238;48.404;9.498;2022-07-17T14:41:42;28.80;27.60
8402;DHT22;4238;48.404;9.498;2022-07-17T14:44:12;29.00;31.00
8402;DHT22;4238;48.404;9.498;2022-07-17T14:46:39;28.60;30.70
8402;DHT22;4238;48.404;9.498;2022-07-17T14:49:06;28.60;33.30
8402;DHT22;4238;48.404;9.498;2022-07-17T14:51:33;28.50;35.50
8402;DHT22;4238;48.404;9.498;2022-07-17T14:54:00;28.50;34.50
8402;DHT22;4238;48.404;9.498;2022-07-17T14:56:27;28.50;36.70
8402;DHT22;4238;48.404;9.498;2022-07-17T14:58:54;28.70;39.60
8402;DHT22;4238;48.404;9.498;2022-07-17T15:01:22;28.80;40.60
8402;DHT22;4238;48.404;9.498;2022-07-17T15:03:49;29.00;63.60
8402;DHT22;4238;48.404;9.498;2022-07-17T15:06:16;29.30;46.00
8402;DHT22;4238;48.404;9.498;2022-07-17T15:08:43;29.30;47.60
8402;DHT22;4238;48.404;9.498;2022-07-17T15:11:11;29.00;40.10
8402;DHT22;4238;48.404;9.498;2022-07-17T15:13:38;28.60;39.70
8402;DHT22;4238;48.404;9.498;2022-07-17T15:16:05;28.80;43.90
8402;DHT22;4238;48.404;9.498;2022-07-17T15:18:33;28.80;41.60
8402;DHT22;4238;48.404;9.498;2022-07-17T15:21:01;28.40;37.50
8402;DHT22;4238;48.404;9.498;2022-07-17T15:23:28;28.30;38.80
8402;DHT22;4238;48.404;9.498;2022-07-17T15:25:55;28.30;39.90
8402;DHT22;4238;48.404;9.498;2022-07-17T15:28:22;28.10;39.10
8402;DHT22;4238;48.404;9.498;2022-07-17T15:30:49;27.90;38.70
8402;DHT22;4238;48.404;9.498;2022-07-17T15:33:16;28.00;41.60
8402;DHT22;4238;48.404;9.498;2022-07-17T15:35:44;28.00;40.90
8402;DHT22;4238;48.404;9.498;2022-07-17T15:38:11;27.80;36.90
8402;DHT22;4238;48.404;9.498;2022-07-17T15:40:38;27.70;39.30
8402;DHT22;4238;48.404;9.498;2022-07-17T15:43:05;27.70;39.70
8402;DHT22;4238;48.404;9.498;2022-07-17T15:45:31;27.70;41.30
8402;DHT22;4238;48.404;9.498;2022-07-17T15:47:58;28.00;46.70
8402;DHT22;4238;48.404;9.498;2022-07-17T15:50:25;27.80;42.30
8402;DHT22;4238;48.404;9.498;2022-07-17T15:52:54;27.80;41.50
8402;DHT22;4238;48.404;9.498;2022-07-17T15:55:21;27.80;43.10
8402;DHT22;4238;48.404;9.498;2022-07-17T15:57:48;27.80;45.10
8402;DHT22;4238;48.404;9.498;2022-07-17T16:00:15;27.80;45.00
8402;DHT22;4238;48.404;9.498;2022-07-17T16:02:42;27.80;45.00
8402;DHT22;4238;48.404;9.498;2022-07-17T16:05:09;27.60;41.40
8402;DHT22;4238;48.404;9.498;2022-07-17T16:07:36;27.70;48.30
8402;DHT22;4238;48.404;9.498;2022-07-17T16:10:05;27.60;43.00
8402;DHT22;4238;48.404;9.498;2022-07-17T16:12:32;27.50;43.30